sensor_id;sensor_type;location;lat;lon;timestamp;temperature;humidity
20483;DHT22;10400;53.198;6.592;2023-06-10T00:01:25;18.00;74.00
20483;DHT22;10400;53.198;6.592;2023-06-10T00:03:51;17.80;9.70
20483;DHT22;10400;53.198;6.592;2023-06-10T00:06:17;17.80;99.90
20483;DHT22;10400;53.198;6.592;2023-06-10T00:08:43;17.80;99.90
20483;DHT22;10400;53.198;6.592;2023-06-10T00:11:09;17.80;99.90
20483;DHT22;10400;53.198;6.592;2023-06-10T00:13:35;17.80;99.90
20483;DHT22;10400;53.198;6.592;2023-06-10T00:16:02;17.60;99.90
20483;DHT22;10400;53.198;6.592;2023-06-10T00:18:29;17.60;1.00
20483;DHT22;10400;53.198;6.592;2023-06-10T00:20:57;17.60;99.90
20483;DHT22;10400;53.198;6.592;2023-06-10T00:23:22;17.40;99.90
20483;DHT22;10400;53.198;6.592;2023-06-10T00:25:50;17.40;99.90
20483;DHT22;10400;53.198;6.592;2023-06-10T00:28:16;17.30;99.90
20483;DHT22;10400;53.198;6.592;2023-06-10T00:30:41;17.30;99.90
20483;DHT22;10400;53.198;6.592;2023-06-10T00:33:07;17.30;99.90
20483;DHT22;10400;53.198;6.592;2023-06-10T00:35:32;17.20;99.90
20483;DHT22;10400;53.198;6.592;2023-06-10T00:37:58;17.20;99.90
20483;DHT22;10400;53.198;6.592;2023-06-10T00:40:24;17.20;99.90
20483;DHT22;10400;53.198;6.592;2023-06-10T00:42:49;17.10;99.90
20483;DHT22;10400;53.198;6.592;2023-06-10T00:45:15;17.10;99.90
20483;DHT22;10400;53.198;6.592;2023-06-10T00:47:40;17.10;99.90
20483;DHT22;10400;53.198;6.592;2023-06-10T00:50:06;17.10;99.90
20483;DHT22;10400;53.198;6.592;2023-06-10T00:52:33;17.10;99.90
20483;DHT22;10400;53.198;6.592;2023-06-10T00:55:00;17.10;99.90
20483;DHT22;10400;53.198;6.592;2023-06-10T00:57:26;17.00;1.00
20483;DHT22;10400;53.198;6.592;2023-06-10T00:59:52;17.00;1.00
20483;DHT22;10400;53.198;6.592;2023-06-10T01:02:18;17.00;1.00
20483;DHT22;10400;53.198;6.592;2023-06-10T01:04:44;17.00;1.00
20483;DHT22;10400;53.198;6.592;2023-06-10T01:07:24;16.90;1.00
20483;DHT22;10400;53.198;6.592;2023-06-10T01:09:55;16.90;1.00
20483;DHT22;10400;53.198;6.592;2023-06-10T01:15:15;16.70;1.00
20483;DHT22;10400;53.198;6.592;2023-06-10T01:18:09;16.60;1.00
20483;DHT22;10400;53.198;6.592;2023-06-10T01:20:38;16.60;99.90
20483;DHT22;10400;53.198;6.592;2023-06-10T01:23:06;16.60;1.00
20483;DHT22;10400;53.198;6.592;2023-06-10T01:25:33;16.60;1.00
20483;DHT22;10400;53.198;6.592;2023-06-10T01:33:31;16.50;1.00
20483;DHT22;10400;53.198;6.592;2023-06-10T01:35:58;16.40;1.00
20483;DHT22;10400;53.198;6.592;2023-06-10T01:38:27;16.40;1.00
20483;DHT22;10400;53.198;6.592;2023-06-10T01:40:53;16.40;1.00
20483;DHT22;10400;53.198;6.592;2023-06-10T01:43:21;16.30;1.00
20483;DHT22;10400;53.198;6.592;2023-06-10T01:45:46;16.30;1.00
20483;DHT22;10400;53.198;6.592;2023-06-10T01:48:12;16.20;99.90
20483;DHT22;10400;53.198;6.592;2023-06-10T01:50:38;16.10;1.00
20483;DHT22;10400;53.198;6.592;2023-06-10T01:53:04;16.10;1.00
20483;DHT22;10400;53.198;6.592;2023-06-10T01:55:33;16.10;99.90
20483;DHT22;10400;53.198;6.592;2023-06-10T01:57:58;16.10;1.00
20483;DHT22;10400;53.198;6.592;2023-06-10T02:00:24;16.00;1.00
20483;DHT22;10400;53.198;6.592;2023-06-10T02:02:50;16.00;1.00
20483;DHT22;10400;53.198;6.592;2023-06-10T02:05:16;15.90;1.00
20483;DHT22;10400;53.198;6.592;2023-06-10T02:07:41;15.80;1.00
20483;DHT22;10400;53.198;6.592;2023-06-10T02:10:08;15.80;99.90
20483;DHT22;10400;53.198;6.592;2023-06-10T02:12:34;15.80;99.90
20483;DHT22;10400;53.198;6.592;2023-06-10T02:14:59;15.80;99.90
20483;DHT22;10400;53.198;6.592;2023-06-10T02:17:25;15.80;99.90
20483;DHT22;10400;53.198;6.592;2023-06-10T02:19:51;15.80;1.00
20483;DHT22;10400;53.198;6.592;2023-06-10T02:22:22;15.70;1.00
20483;DHT22;10400;53.198;6.592;2023-06-10T02:24:48;15.70;1.00
20483;DHT22;10400;53.198;6.592;2023-06-10T02:27:15;15.60;1.00
20483;DHT22;10400;53.198;6.592;2023-06-10T02:29:41;15.60;1.00
20483;DHT22;10400;53.198;6.592;2023-06-10T02:32:07;15.60;1.00
20483;DHT22;10400;53.198;6.592;2023-06-10T02:34:33;15.60;1.00
20483;DHT22;10400;53.198;6.592;2023-06-10T02:37:03;15.60;1.00
20483;DHT22;10400;53.198;6.592;2023-06-10T02:39:29;15.60;1.00
20483;DHT22;10400;53.198;6.592;2023-06-10T02:41:54;15.60;1.00
20483;DHT22;10400;53.198;6.592;2023-06-10T02:44:20;15.50;1.00
20483;DHT22;10400;53.198;6.592;2023-06-10T02:46:46;15.50;1.00
20483;DHT22;10400;53.198;6.592;2023-06-10T02:49:12;15.50;1.00
20483;DHT22;10400;53.198;6.592;2023-06-10T02:51:38;15.50;1.00
20483;DHT22;10400;53.198;6.592;2023-06-10T02:54:04;15.40;1.00
20483;DHT22;10400;53.198;6.592;2023-06-10T02:56:30;15.30;1.00
20483;DHT22;10400;53.198;6.592;2023-06-10T02:58:57;15.30;8.60
20483;DHT22;10400;53.198;6.592;2023-06-10T03:01:23;15.30;13.00
20483;DHT22;10400;53.198;6.592;2023-06-10T03:03:48;15.30;20.50
20483;DHT22;10400;53.198;6.592;2023-06-10T03:06:15;15.30;25.00
20483;DHT22;10400;53.198;6.592;2023-06-10T03:08:42;15.30;32.80
20483;DHT22;10400;53.198;6.592;2023-06-10T03:11:07;15.40;39.20
20483;DHT22;10400;53.198;6.592;2023-06-10T03:13:33;15.40;51.20
20483;DHT22;10400;53.198;6.592;2023-06-10T03:15:59;15.30;58.90
20483;DHT22;10400;53.198;6.592;2023-06-10T03:18:28;15.20;66.20
20483;DHT22;10400;53.198;6.592;2023-06-10T03:20:54;15.20;86.40
20483;DHT22;10400;53.198;6.592;2023-06-10T03:23:20;15.20;95.70
20483;DHT22;10400;53.198;6.592;2023-06-10T03:25:46;15.10;99.40
20483;DHT22;10400;53.198;6.592;2023-06-10T03:28:12;15.10;99.90
20483;DHT22;10400;53.198;6.592;2023-06-10T03:30:38;15.10;99.90
20483;DHT22;10400;53.198;6.592;2023-06-10T03:33:03;15.20;99.90
20483;DHT22;10400;53.198;6.592;2023-06-10T03:35:32;15.20;99.90
20483;DHT22;10400;53.198;6.592;2023-06-10T03:37:58;15.10;99.90
20483;DHT22;10400;53.198;6.592;2023-06-10T03:40:24;15.10;99.90
20483;DHT22;10400;53.198;6.592;2023-06-10T03:42:50;15.10;99.90
20483;DHT22;10400;53.198;6.592;2023-06-10T03:45:15;15.10;99.90
20483;DHT22;10400;53.198;6.592;2023-06-10T03:47:43;15.10;99.90
20483;DHT22;10400;53.198;6.592;2023-06-10T03:50:09;15.20;99.90
20483;DHT22;10400;53.198;6.592;2023-06-10T03:52:37;15.20;99.90
20483;DHT22;10400;53.198;6.592;2023-06-10T03:55:03;15.10;99.90
20483;DHT22;10400;53.198;6.592;2023-06-10T03:57:29;15.10;99.90
20483;DHT22;10400;53.198;6.592;2023-06-10T03:59:54;15.10;99.90
20483;DHT22;10400;53.198;6.592;2023-06-10T04:02:21;15.10;99.90
20483;DHT22;10400;53.198;6.592;2023-06-10T04:04:48;15.10;99.90
20483;DHT22;10400;53.198;6.592;2023-06-10T04:07:14;15.10;99.90
20483;DHT22;10400;53.198;6.592;2023-06-10T04:09:40;15.10;99.90
20483;DHT22;10400;53.198;6.592;2023-06-10T04:12:06;15.10;99.90
20483;DHT22;10400;53.198;6.592;2023-06-10T04:14:34;15.10;99.90
20483;DHT22;10400;53.198;6.592;2023-06-10T04:17:02;15.20;99.90
20483;DHT22;10400;53.198;6.592;2023-06-10T04:19:27;15.30;99.90
20483;DHT22;10400;53.198;6.592;2023-06-10T04:21:54;15.30;99.90
20483;DHT22;10400;53.198;6.592;2023-06-10T04:24:19;15.30;99.90
20483;DHT22;10400;53.198;6.592;2023-06-10T04:26:45;15.30;99.90
20483;DHT22;10400;53.198;6.592;2023-06-10T04:29:11;15.30;99.90
20483;DHT22;10400;53.198;6.592;2023-06-10T04:31:37;15.30;99.90
20483;DHT22;10400;53.198;6.592;2023-06-10T04:34:02;15.40;99.90
20483;DHT22;10400;53.198;6.592;2023-06-10T04:36:28;15.40;99.90
20483;DHT22;10400;53.198;6.592;2023-06-10T04:38:55;15.40;99.90
20483;DHT22;10400;53.198;6.592;2023-06-10T04:41:21;15.40;99.90
20483;DHT22;10400;53.198;6.592;2023-06-10T04:43:47;15.40;99.90
20483;DHT22;10400;53.198;6.592;2023-06-10T04:46:13;15.50;99.90
20483;DHT22;10400;53.198;6.592;2023-06-10T04:48:39;15.50;99.90
20483;DHT22;10400;53.198;6.592;2023-06-10T04:51:04;15.50;99.90
20483;DHT22;10400;53.198;6.592;2023-06-10T04:53:31;15.60;99.90
20483;DHT22;10400;53.198;6.592;2023-06-10T04:55:57;15.60;99.90
20483;DHT22;10400;53.198;6.592;2023-06-10T04:58:25;15.70;99.90
20483;DHT22;10400;53.198;6.592;2023-06-10T05:00:53;15.70;99.90
20483;DHT22;10400;53.198;6.592;2023-06-10T05:03:19;15.80;99.90
20483;DHT22;10400;53.198;6.592;2023-06-10T05:05:45;15.90;99.90
20483;DHT22;10400;53.198;6.592;2023-06-10T05:08:11;16.00;99.90
20483;DHT22;10400;53.198;6.592;2023-06-10T05:10:36;16.10;99.90
20483;DHT22;10400;53.198;6.592;2023-06-10T05:13:02;16.20;99.90
20483;DHT22;10400;53.198;6.592;2023-06-10T05:15:28;16.30;99.90
20483;DHT22;10400;53.198;6.592;2023-06-10T05:17:56;16.30;99.90
20483;DHT22;10400;53.198;6.592;2023-06-10T05:20:23;16.30;99.90
20483;DHT22;10400;53.198;6.592;2023-06-10T05:22:48;16.40;99.90
20483;DHT22;10400;53.198;6.592;2023-06-10T05:25:14;16.40;99.90
20483;DHT22;10400;53.198;6.592;2023-06-10T05:27:39;16.40;99.90
20483;DHT22;10400;53.198;6.592;2023-06-10T05:30:08;16.50;99.90
20483;DHT22;10400;53.198;6.592;2023-06-10T05:32:33;16.50;99.90
20483;DHT22;10400;53.198;6.592;2023-06-10T05:34:59;16.60;99.90
20483;DHT22;10400;53.198;6.592;2023-06-10T05:37:26;16.70;99.90
20483;DHT22;10400;53.198;6.592;2023-06-10T05:39:52;16.70;99.90
20483;DHT22;10400;53.198;6.592;2023-06-10T05:42:18;16.70;99.90
20483;DHT22;10400;53.198;6.592;2023-06-10T05:44:43;16.60;99.90
20483;DHT22;10400;53.198;6.592;2023-06-10T05:47:09;16.70;99.90
20483;DHT22;10400;53.198;6.592;2023-06-10T05:49:35;16.70;99.90
20483;DHT22;10400;53.198;6.592;2023-06-10T05:52:00;16.80;99.90
20483;DHT22;10400;53.198;6.592;2023-06-10T05:54:26;16.90;99.90
20483;DHT22;10400;53.198;6.592;2023-06-10T05:56:52;16.90;99.90
20483;DHT22;10400;53.198;6.592;2023-06-10T05:59:17;17.00;99.90
20483;DHT22;10400;53.198;6.592;2023-06-10T06:01:43;17.20;99.90
20483;DHT22;10400;53.198;6.592;2023-06-10T06:04:09;17.10;99.90
20483;DHT22;10400;53.198;6.592;2023-06-10T06:06:38;17.00;99.90
20483;DHT22;10400;53.198;6.592;2023-06-10T06:09:03;17.20;99.90
20483;DHT22;10400;53.198;6.592;2023-06-10T06:11:29;17.30;99.90
20483;DHT22;10400;53.198;6.592;2023-06-10T06:13:55;17.30;99.90
20483;DHT22;10400;53.198;6.592;2023-06-10T06:16:21;17.50;99.90
20483;DHT22;10400;53.198;6.592;2023-06-10T06:18:47;17.60;99.90
20483;DHT22;10400;53.198;6.592;2023-06-10T06:21:12;17.80;99.90
20483;DHT22;10400;53.198;6.592;2023-06-10T06:23:38;17.80;99.90
20483;DHT22;10400;53.198;6.592;2023-06-10T06:26:03;17.80;99.90
20483;DHT22;10400;53.198;6.592;2023-06-10T06:28:29;17.90;99.90
20483;DHT22;10400;53.198;6.592;2023-06-10T06:30:56;18.00;99.90
20483;DHT22;10400;53.198;6.592;2023-06-10T06:33:22;18.10;97.20
20483;DHT22;10400;53.198;6.592;2023-06-10T06:35:48;18.10;92.80
20483;DHT22;10400;53.198;6.592;2023-06-10T06:38:13;18.20;90.10
20483;DHT22;10400;53.198;6.592;2023-06-10T06:40:39;18.30;77.30
20483;DHT22;10400;53.198;6.592;2023-06-10T06:43:04;18.20;61.80
20483;DHT22;10400;53.198;6.592;2023-06-10T06:45:30;18.30;70.90
20483;DHT22;10400;53.198;6.592;2023-06-10T06:47:56;18.40;65.70
20483;DHT22;10400;53.198;6.592;2023-06-10T06:50:22;18.50;52.90
20483;DHT22;10400;53.198;6.592;2023-06-10T06:52:47;18.50;48.40
20483;DHT22;10400;53.198;6.592;2023-06-10T06:55:13;18.60;41.00
20483;DHT22;10400;53.198;6.592;2023-06-10T06:57:40;18.70;35.30
20483;DHT22;10400;53.198;6.592;2023-06-10T07:00:06;18.70;12.30
20483;DHT22;10400;53.198;6.592;2023-06-10T07:02:33;18.70;10.80
20483;DHT22;10400;53.198;6.592;2023-06-10T07:04:58;18.80;3.50
20483;DHT22;10400;53.198;6.592;2023-06-10T07:07:24;18.80;1.00
20483;DHT22;10400;53.198;6.592;2023-06-10T07:09:50;18.90;1.00
20483;DHT22;10400;53.198;6.592;2023-06-10T07:12:16;18.90;6.40
20483;DHT22;10400;53.198;6.592;2023-06-10T07:14:43;19.10;1.40
20483;DHT22;10400;53.198;6.592;2023-06-10T07:17:09;19.20;1.00
20483;DHT22;10400;53.198;6.592;2023-06-10T07:19:34;19.20;1.00
20483;DHT22;10400;53.198;6.592;2023-06-10T07:22:00;19.40;1.00
20483;DHT22;10400;53.198;6.592;2023-06-10T07:24:26;19.50;1.00
20483;DHT22;10400;53.198;6.592;2023-06-10T07:26:51;19.60;1.00
20483;DHT22;10400;53.198;6.592;2023-06-10T07:29:17;19.60;1.00
20483;DHT22;10400;53.198;6.592;2023-06-10T07:31:43;19.60;1.00
20483;DHT22;10400;53.198;6.592;2023-06-10T07:34:08;19.70;1.00
20483;DHT22;10400;53.198;6.592;2023-06-10T07:36:34;19.60;1.00
20483;DHT22;10400;53.198;6.592;2023-06-10T07:38:59;19.60;1.00
20483;DHT22;10400;53.198;6.592;2023-06-10T07:41:25;19.70;1.00
20483;DHT22;10400;53.198;6.592;2023-06-10T07:43:53;19.70;1.00
20483;DHT22;10400;53.198;6.592;2023-06-10T07:46:23;19.90;1.00
20483;DHT22;10400;53.198;6.592;2023-06-10T07:48:49;20.00;1.00
20483;DHT22;10400;53.198;6.592;2023-06-10T07:51:16;20.10;1.00
20483;DHT22;10400;53.198;6.592;2023-06-10T07:53:42;20.10;1.00
20483;DHT22;10400;53.198;6.592;2023-06-10T07:56:08;20.20;1.00
20483;DHT22;10400;53.198;6.592;2023-06-10T07:58:33;20.20;1.00
20483;DHT22;10400;53.198;6.592;2023-06-10T08:00:59;20.30;1.00
20483;DHT22;10400;53.198;6.592;2023-06-10T08:03:24;20.30;1.00
20483;DHT22;10400;53.198;6.592;2023-06-10T08:05:50;20.30;1.00
20483;DHT22;10400;53.198;6.592;2023-06-10T08:08:16;20.50;1.00
20483;DHT22;10400;53.198;6.592;2023-06-10T08:10:41;20.60;1.00
20483;DHT22;10400;53.198;6.592;2023-06-10T08:13:08;20.70;1.00
20483;DHT22;10400;53.198;6.592;2023-06-10T08:15:34;20.70;1.00
20483;DHT22;10400;53.198;6.592;2023-06-10T08:17:59;20.80;1.00
20483;DHT22;10400;53.198;6.592;2023-06-10T08:20:25;20.90;99.90
20483;DHT22;10400;53.198;6.592;2023-06-10T08:22:51;20.90;99.90
20483;DHT22;10400;53.198;6.592;2023-06-10T08:25:17;20.90;1.00
20483;DHT22;10400;53.198;6.592;2023-06-10T08:27:42;20.80;1.00
20483;DHT22;10400;53.198;6.592;2023-06-10T08:30:08;21.00;99.90
20483;DHT22;10400;53.198;6.592;2023-06-10T08:32:36;21.20;99.90
20483;DHT22;10400;53.198;6.592;2023-06-10T08:35:02;21.50;1.00
20483;DHT22;10400;53.198;6.592;2023-06-10T08:37:28;21.60;39.00
20483;DHT22;10400;53.198;6.592;2023-06-10T08:39:57;21.80;1.00
20483;DHT22;10400;53.198;6.592;2023-06-10T08:42:23;21.80;1.00
20483;DHT22;10400;53.198;6.592;2023-06-10T08:44:56;21.90;1.00
20483;DHT22;10400;53.198;6.592;2023-06-10T08:47:23;21.90;1.00
20483;DHT22;10400;53.198;6.592;2023-06-10T08:49:51;21.80;1.00
20483;DHT22;10400;53.198;6.592;2023-06-10T08:52:19;21.80;99.90
20483;DHT22;10400;53.198;6.592;2023-06-10T08:54:59;21.90;99.90
20483;DHT22;10400;53.198;6.592;2023-06-10T08:57:26;21.80;1.00
20483;DHT22;10400;53.198;6.592;2023-06-10T08:59:56;22.00;99.90
20483;DHT22;10400;53.198;6.592;2023-06-10T09:02:25;22.00;99.90
20483;DHT22;10400;53.198;6.592;2023-06-10T09:04:51;22.00;1.00
20483;DHT22;10400;53.198;6.592;2023-06-10T09:07:17;22.20;99.90
20483;DHT22;10400;53.198;6.592;2023-06-10T09:09:44;22.30;99.90
20483;DHT22;10400;53.198;6.592;2023-06-10T09:12:11;22.40;1.00
20483;DHT22;10400;53.198;6.592;2023-06-10T09:14:37;22.40;99.90
20483;DHT22;10400;53.198;6.592;2023-06-10T09:17:04;22.50;99.90
20483;DHT22;10400;53.198;6.592;2023-06-10T09:19:30;22.60;1.00
20483;DHT22;10400;53.198;6.592;2023-06-10T09:21:56;22.70;99.90
20483;DHT22;10400;53.198;6.592;2023-06-10T09:24:25;22.80;99.90
20483;DHT22;10400;53.198;6.592;2023-06-10T09:27:04;22.70;99.90
20483;DHT22;10400;53.198;6.592;2023-06-10T09:29:45;22.60;1.00
20483;DHT22;10400;53.198;6.592;2023-06-10T09:32:10;22.70;1.00
20483;DHT22;10400;53.198;6.592;2023-06-10T09:34:36;22.80;99.90
20483;DHT22;10400;53.198;6.592;2023-06-10T09:37:03;22.90;1.00
20483;DHT22;10400;53.198;6.592;2023-06-10T09:39:29;22.80;1.00
20483;DHT22;10400;53.198;6.592;2023-06-10T09:41:55;22.80;5.20
20483;DHT22;10400;53.198;6.592;2023-06-10T09:44:21;23.10;1.00
20483;DHT22;10400;53.198;6.592;2023-06-10T09:46:49;23.30;1.00
20483;DHT22;10400;53.198;6.592;2023-06-10T09:49:19;23.40;88.40
20483;DHT22;10400;53.198;6.592;2023-06-10T09:51:51;23.60;99.90
20483;DHT22;10400;53.198;6.592;2023-06-10T09:54:18;23.60;1.00
20483;DHT22;10400;53.198;6.592;2023-06-10T09:56:47;23.70;99.90
20483;DHT22;10400;53.198;6.592;2023-06-10T09:59:13;23.70;1.00
20483;DHT22;10400;53.198;6.592;2023-06-10T10:01:38;23.80;1.00
20483;DHT22;10400;53.198;6.592;2023-06-10T10:04:04;23.70;97.30
20483;DHT22;10400;53.198;6.592;2023-06-10T10:06:30;23.90;1.00
20483;DHT22;10400;53.198;6.592;2023-06-10T10:08:56;23.60;1.00
20483;DHT22;10400;53.198;6.592;2023-06-10T10:11:23;23.70;1.00
20483;DHT22;10400;53.198;6.592;2023-06-10T10:13:53;23.50;99.90
20483;DHT22;10400;53.198;6.592;2023-06-10T10:16:35;23.60;99.90
20483;DHT22;10400;53.198;6.592;2023-06-10T10:19:10;23.90;1.00
20483;DHT22;10400;53.198;6.592;2023-06-10T10:21:56;24.00;99.90
20483;DHT22;10400;53.198;6.592;2023-06-10T10:24:32;24.30;99.90
20483;DHT22;10400;53.198;6.592;2023-06-10T10:26:59;24.00;99.90
20483;DHT22;10400;53.198;6.592;2023-06-10T10:29:33;24.10;99.90
20483;DHT22;10400;53.198;6.592;2023-06-10T10:32:02;24.30;78.10
20483;DHT22;10400;53.198;6.592;2023-06-10T10:37:12;24.40;1.00
20483;DHT22;10400;53.198;6.592;2023-06-10T10:39:38;24.50;16.20
20483;DHT22;10400;53.198;6.592;2023-06-10T10:42:04;24.60;1.00
20483;DHT22;10400;53.198;6.592;2023-06-10T10:44:31;24.60;1.00
20483;DHT22;10400;53.198;6.592;2023-06-10T10:47:02;24.60;1.00
20483;DHT22;10400;53.198;6.592;2023-06-10T10:49:30;24.70;1.00
20483;DHT22;10400;53.198;6.592;2023-06-10T10:52:00;24.70;1.00
20483;DHT22;10400;53.198;6.592;2023-06-10T10:54:35;24.80;1.00
20483;DHT22;10400;53.198;6.592;2023-06-10T10:57:16;24.80;1.00
20483;DHT22;10400;53.198;6.592;2023-06-10T11:02:44;24.80;1.00
20483;DHT22;10400;53.198;6.592;2023-06-10T11:05:13;25.10;1.00
20483;DHT22;10400;53.198;6.592;2023-06-10T11:07:39;25.10;1.00
20483;DHT22;10400;53.198;6.592;2023-06-10T11:10:10;25.20;1.00
20483;DHT22;10400;53.198;6.592;2023-06-10T11:15:19;25.00;1.00
20483;DHT22;10400;53.198;6.592;2023-06-10T11:28:39;25.70;99.90
20483;DHT22;10400;53.198;6.592;2023-06-10T11:31:04;25.80;99.90
20483;DHT22;10400;53.198;6.592;2023-06-10T11:33:33;25.30;99.90
20483;DHT22;10400;53.198;6.592;2023-06-10T11:35:59;25.20;99.90
20483;DHT22;10400;53.198;6.592;2023-06-10T11:38:25;25.40;99.90
20483;DHT22;10400;53.198;6.592;2023-06-10T11:40:51;25.50;99.90
20483;DHT22;10400;53.198;6.592;2023-06-10T11:43:17;25.60;99.90
20483;DHT22;10400;53.198;6.592;2023-06-10T11:45:53;26.00;99.90
20483;DHT22;10400;53.198;6.592;2023-06-10T11:48:19;26.10;99.90
20483;DHT22;10400;53.198;6.592;2023-06-10T11:50:44;26.00;99.90
20483;DHT22;10400;53.198;6.592;2023-06-10T11:53:10;25.80;99.90
20483;DHT22;10400;53.198;6.592;2023-06-10T11:55:47;25.90;99.90
20483;DHT22;10400;53.198;6.592;2023-06-10T11:58:21;25.90;99.90
20483;DHT22;10400;53.198;6.592;2023-06-10T12:00:51;26.00;99.90
20483;DHT22;10400;53.198;6.592;2023-06-10T12:03:19;26.20;99.90
20483;DHT22;10400;53.198;6.592;2023-06-10T12:06:04;26.30;99.90
20483;DHT22;10400;53.198;6.592;2023-06-10T12:08:34;26.30;99.90
20483;DHT22;10400;53.198;6.592;2023-06-10T12:11:06;26.30;99.90
20483;DHT22;10400;53.198;6.592;2023-06-10T12:13:32;26.20;99.90
20483;DHT22;10400;53.198;6.592;2023-06-10T12:16:16;26.40;99.90
20483;DHT22;10400;53.198;6.592;2023-06-10T12:18:46;26.30;99.90
20483;DHT22;10400;53.198;6.592;2023-06-10T12:21:17;26.30;99.90
20483;DHT22;10400;53.198;6.592;2023-06-10T12:24:02;26.50;99.90
20483;DHT22;10400;53.198;6.592;2023-06-10T12:26:36;26.50;99.90
20483;DHT22;10400;53.198;6.592;2023-06-10T12:29:22;26.60;99.90
20483;DHT22;10400;53.198;6.592;2023-06-10T12:31:57;26.70;99.90
20483;DHT22;10400;53.198;6.592;2023-06-10T12:34:39;26.70;99.90
20483;DHT22;10400;53.198;6.592;2023-06-10T12:37:10;26.90;99.90
20483;DHT22;10400;53.198;6.592;2023-06-10T12:39:39;27.00;99.90
20483;DHT22;10400;53.198;6.592;2023-06-10T12:42:05;27.00;99.90
20483;DHT22;10400;53.198;6.592;2023-06-10T12:44:38;26.80;99.90
20483;DHT22;10400;53.198;6.592;2023-06-10T12:47:11;26.80;99.90
20483;DHT22;10400;53.198;6.592;2023-06-10T12:49:37;26.90;99.90
20483;DHT22;10400;53.198;6.592;2023-06-10T12:52:07;27.00;99.90
20483;DHT22;10400;53.198;6.592;2023-06-10T12:54:33;27.00;99.90
20483;DHT22;10400;53.198;6.592;2023-06-10T12:56:59;27.10;99.90
20483;DHT22;10400;53.198;6.592;2023-06-10T12:59:26;27.20;99.90
20483;DHT22;10400;53.198;6.592;2023-06-10T13:01:53;27.20;99.90
20483;DHT22;10400;53.198;6.592;2023-06-10T13:04:20;26.70;99.90
20483;DHT22;10400;53.198;6.592;2023-06-10T13:06:47;26.90;99.90
20483;DHT22;10400;53.198;6.592;2023-06-10T13:09:15;27.00;99.90
20483;DHT22;10400;53.198;6.592;2023-06-10T13:11:41;27.10;99.90
20483;DHT22;10400;53.198;6.592;2023-06-10T13:14:08;27.00;99.90
20483;DHT22;10400;53.198;6.592;2023-06-10T13:16:34;27.00;99.90
20483;DHT22;10400;53.198;6.592;2023-06-10T13:19:00;27.10;99.90
20483;DHT22;10400;53.198;6.592;2023-06-10T13:21:28;27.00;99.90
20483;DHT22;10400;53.198;6.592;2023-06-10T13:23:53;27.00;99.90
20483;DHT22;10400;53.198;6.592;2023-06-10T13:26:20;27.00;99.90
20483;DHT22;10400;53.198;6.592;2023-06-10T13:28:48;27.10;99.90
20483;DHT22;10400;53.198;6.592;2023-06-10T13:31:14;27.10;99.90
20483;DHT22;10400;53.198;6.592;2023-06-10T13:33:40;27.40;99.90
20483;DHT22;10400;53.198;6.592;2023-06-10T13:36:06;27.40;99.90
20483;DHT22;10400;53.198;6.592;2023-06-10T13:38:31;27.40;99.90
20483;DHT22;10400;53.198;6.592;2023-06-10T13:40:57;27.60;99.90
20483;DHT22;10400;53.198;6.592;2023-06-10T13:43:23;27.50;99.90
20483;DHT22;10400;53.198;6.592;2023-06-10T13:45:48;27.50;99.90
20483;DHT22;10400;53.198;6.592;2023-06-10T13:48:14;27.50;99.90
20483;DHT22;10400;53.198;6.592;2023-06-10T13:50:40;27.40;99.90
20483;DHT22;10400;53.198;6.592;2023-06-10T13:53:05;27.60;99.90
20483;DHT22;10400;53.198;6.592;2023-06-10T13:55:31;27.30;99.90
20483;DHT22;10400;53.198;6.592;2023-06-10T13:57:57;27.50;99.90
20483;DHT22;10400;53.198;6.592;2023-06-10T14:00:22;27.60;99.90
20483;DHT22;10400;53.198;6.592;2023-06-10T14:02:51;27.70;99.90
20483;DHT22;10400;53.198;6.592;2023-06-10T14:05:17;27.80;99.90
20483;DHT22;10400;53.198;6.592;2023-06-10T14:07:42;27.80;99.90
20483;DHT22;10400;53.198;6.592;2023-06-10T14:10:09;27.70;99.90
20483;DHT22;10400;53.198;6.592;2023-06-10T14:12:35;27.50;99.90
20483;DHT22;10400;53.198;6.592;2023-06-10T14:15:02;27.60;99.90
20483;DHT22;10400;53.198;6.592;2023-06-10T14:17:28;27.60;99.90
20483;DHT22;10400;53.198;6.592;2023-06-10T14:19:54;27.70;99.90
20483;DHT22;10400;53.198;6.592;2023-06-10T14:22:20;27.70;99.90
20483;DHT22;10400;53.198;6.592;2023-06-10T14:24:45;27.70;99.90
20483;DHT22;10400;53.198;6.592;2023-06-10T14:27:12;27.80;99.90
20483;DHT22;10400;53.198;6.592;2023-06-10T14:29:41;28.00;99.90
20483;DHT22;10400;53.198;6.592;2023-06-10T14:32:10;28.10;99.90
20483;DHT22;10400;53.198;6.592;2023-06-10T14:34:36;27.90;99.90
20483;DHT22;10400;53.198;6.592;2023-06-10T14:37:01;27.90;99.90
20483;DHT22;10400;53.198;6.592;2023-06-10T14:39:29;27.90;99.90
20483;DHT22;10400;53.198;6.592;2023-06-10T14:41:55;28.00;99.90
20483;DHT22;10400;53.198;6.592;2023-06-10T14:44:20;28.20;99.90
20483;DHT22;10400;53.198;6.592;2023-06-10T14:46:46;28.10;99.90
20483;DHT22;10400;53.198;6.592;2023-06-10T14:49:12;28.10;99.90
20483;DHT22;10400;53.198;6.592;2023-06-10T14:51:38;28.20;99.90
20483;DHT22;10400;53.198;6.592;2023-06-10T14:54:03;28.20;99.90
20483;DHT22;10400;53.198;6.592;2023-06-10T14:56:29;28.10;99.90
20483;DHT22;10400;53.198;6.592;2023-06-10T14:58:55;28.20;99.90
20483;DHT22;10400;53.198;6.592;2023-06-10T15:01:21;28.40;99.90
20483;DHT22;10400;53.198;6.592;2023-06-10T15:03:47;28.30;99.90
20483;DHT22;10400;53.198;6.592;2023-06-10T15:06:13;28.10;99.90
20483;DHT22;10400;53.198;6.592;2023-06-10T15:08:42;28.20;99.90
20483;DHT22;10400;53.198;6.592;2023-06-10T15:11:08;28.20;99.90
20483;DHT22;10400;53.198;6.592;2023-06-10T15:13:33;28.40;99.90
20483;DHT22;10400;53.198;6.592;2023-06-10T15:15:59;28.30;99.90
20483;DHT22;10400;53.198;6.592;2023-06-10T15:18:25;28.40;99.90
20483;DHT22;10400;53.198;6.592;2023-06-10T15:20:50;28.50;99.90
20483;DHT22;10400;53.198;6.592;2023-06-10T15:23:16;28.30;99.90
20483;DHT22;10400;53.198;6.592;2023-06-10T15:25:42;28.30;99.90
20483;DHT22;10400;53.198;6.592;2023-06-10T15:28:08;28.30;99.90
20483;DHT22;10400;53.198;6.592;2023-06-10T15:30:34;28.40;99.90
20483;DHT22;10400;53.198;6.592;2023-06-10T15:32:59;28.10;99.90
20483;DHT22;10400;53.198;6.592;2023-06-10T15:35:25;28.10;99.90
20483;DHT22;10400;53.198;6.592;2023-06-10T15:37:51;28.20;99.90
20483;DHT22;10400;53.198;6.592;2023-06-10T15:40:17;28.40;99.90
20483;DHT22;10400;53.198;6.592;2023-06-10T15:42:43;28.50;99.90
20483;DHT22;10400;53.198;6.592;2023-06-10T15:45:09;28.60;99.90
20483;DHT22;10400;53.198;6.592;2023-06-10T15:47:35;28.40;99.90
20483;DHT22;10400;53.198;6.592;2023-06-10T15:50:00;28.20;99.90
20483;DHT22;10400;53.198;6.592;2023-06-10T15:52:26;28.20;99.90
20483;DHT22;10400;53.198;6.592;2023-06-10T15:54:52;28.30;99.90
20483;DHT22;10400;53.198;6.592;2023-06-10T15:57:17;28.30;99.90
20483;DHT22;10400;53.198;6.592;2023-06-10T15:59:44;28.40;99.90
20483;DHT22;10400;53.198;6.592;2023-06-10T16:02:10;28.50;99.90